Météo Nord-Pas-de-Calais   La météo au plus près de chez vous

Station météorologique

Observations météo à Chastreix (63098)

63098001 1385 m Dernier relevé à 14:24
23.5°C
Humidité 39 % Vent 11.2 km/h

Journée consultée

Vendredi 4 Septembre 2026

Synthèse de la journée

Périodes de référence en UTC

Température maximale

23.5°C

à 14:24

06h 06h

Température minimale

16.3°C

à 23:12

18h 18h

Rafale maximale

29 km/h

à 14:06

00h 00h

Précipitations

0 mm

Cumul quotidien

06h 06h

Ensoleillement

6h 8 mins

Durée quotidienne

00h 00h

Graphiques de la journée

Heure locale Réduire

Données détaillées

Relevés météo

Pas de 6 minutes Afficher les relevés infra-horaires
Relevés météo détaillés à Chastreix pour le Vendredi 4 Septembre 2026
Heure Température °C Point de rosée °C Humidité % Vent moyen (raf.), km/h Précipitations mm Hauteur neige cm Ensoleillement min Rayonnement global W/m²
14:24 23.5 °C 9.8 °C 42 % 14 km/h (24 km/h) 0 mm0 mm 0 cm 6 min 294 W/m²
14:18 23.3 °C 9.3 °C 41 % 15 km/h (26 km/h) 0 mm0 mm 0 cm 6 min 295.3 W/m²
14:12 23.2 °C 8.5 °C 39 % 16 km/h (29 km/h) 0 mm0 mm 0 cm 6 min 296.1 W/m²
14:06 23 °C 9.4 °C 42 % 16 km/h (29 km/h) 0 mm0 mm 0 cm 6 min 296.3 W/m²
14:00 23.1 °C 9.1 °C 41 % 15 km/h (24 km/h) 0 mm0 mm 0 cm 6 min 296.7 W/m²
13:54 23.3 °C 8.6 °C 39 % 14 km/h (24 km/h) 0 mm0 mm 0 cm 6 min 296.9 W/m²
13:48 23.1 °C 9.1 °C 41 % 14 km/h (24 km/h) 0 mm0 mm 0 cm 6 min 296.9 W/m²
13:42 22.7 °C 8.4 °C 40 % 13 km/h (22 km/h) 0 mm0 mm 0 cm 6 min 296.9 W/m²
13:36 23.1 °C 9.5 °C 42 % 12 km/h (20 km/h) 0 mm0 mm 0 cm 6 min 296.2 W/m²
13:30 23 °C 8.7 °C 40 % 13 km/h (20 km/h) 0 mm0 mm 0 cm 6 min 295.8 W/m²
13:24 23.1 °C 8.4 °C 39 % 11 km/h (19 km/h) 0 mm0 mm 0 cm 6 min 294.9 W/m²
13:18 23.3 °C 8.9 °C 40 % 9 km/h (19 km/h) 0 mm0 mm 0 cm 6 min 294.4 W/m²
13:12 23.3 °C 9.3 °C 41 % 7 km/h (13 km/h) 0 mm0 mm 0 cm 6 min 292.7 W/m²
13:06 23.2 °C 9.2 °C 41 % 7 km/h (14 km/h) 0 mm0 mm 0 cm 6 min 291.5 W/m²
13:00 23 °C 9.7 °C 43 % 7 km/h (15 km/h) 0 mm0 mm 0 cm 6 min 289 W/m²
12:54 22.9 °C 9.7 °C 43 % 5 km/h (15 km/h) 0 mm0 mm 0 cm 6 min 286.6 W/m²
12:48 22.3 °C 8.4 °C 41 % 6 km/h (17 km/h) 0 mm0 mm 0 cm 6 min 284.9 W/m²
12:42 22.4 °C 9.5 °C 44 % 6 km/h (15 km/h) 0 mm0 mm 0 cm 6 min 282.2 W/m²
12:36 22.2 °C 9.4 °C 44 % 8 km/h (15 km/h) 0 mm0 mm 0 cm 6 min 279.4 W/m²
12:30 22.2 °C 9.4 °C 44 % 8 km/h (15 km/h) 0 mm0 mm 0 cm 6 min 277 W/m²
12:24 21.9 °C 9.1 °C 44 % 9 km/h (15 km/h) 0 mm0 mm 0 cm 6 min 274.4 W/m²
12:18 21.7 °C 9.6 °C 46 % 8 km/h (14 km/h) 0 mm0 mm 0 cm 6 min 270.9 W/m²
12:12 21.7 °C 10.2 °C 48 % 9 km/h (16 km/h) 0 mm0 mm 0 cm 6 min 268.2 W/m²
12:06 21.8 °C 10.6 °C 49 % 8 km/h (15 km/h) 0 mm0 mm 0 cm 6 min 264.8 W/m²
12:00 21.9 °C 11.3 °C 51 % 7 km/h (15 km/h) 0 mm0 mm 0 cm 6 min 261.3 W/m²
11:54 21.7 °C 10.5 °C 49 % 6 km/h (11 km/h) 0 mm0 mm 0 cm 6 min 257.6 W/m²
11:48 21.5 °C 10 °C 48 % 6 km/h (11 km/h) 0 mm0 mm 0 cm 6 min 254 W/m²
11:42 21.2 °C 8.8 °C 45 % 7 km/h (12 km/h) 0 mm0 mm 0 cm 6 min 250.1 W/m²
11:36 21.1 °C 9.3 °C 47 % 8 km/h (13 km/h) 0 mm0 mm 0 cm 6 min 246.1 W/m²
11:30 21 °C 9.3 °C 47 % 9 km/h (14 km/h) 0 mm0 mm 0 cm 6 min 241.7 W/m²
11:24 20.9 °C 9.8 °C 49 % 9 km/h (14 km/h) 0 mm0 mm 0 cm 6 min 237.3 W/m²
11:18 21.1 °C 9.7 °C 48 % 8 km/h (12 km/h) 0 mm0 mm 0 cm 6 min 232.8 W/m²
11:12 21.3 °C 9.5 °C 47 % 6 km/h (12 km/h) 0 mm0 mm 0 cm 6 min 228.2 W/m²
11:06 21.3 °C 9.5 °C 47 % 6 km/h (10 km/h) 0 mm0 mm 0 cm 6 min 223.4 W/m²
11:00 21.2 °C 9.7 °C 48 % 6 km/h (10 km/h) 0 mm0 mm 0 cm 6 min 218.5 W/m²
10:54 21.1 °C 9.3 °C 47 % 5 km/h (8 km/h) 0 mm0 mm 0 cm 6 min 213.2 W/m²
10:48 21.2 °C 9.4 °C 47 % 6 km/h (10 km/h) 0 mm0 mm 0 cm 6 min 208 W/m²
10:42 21.4 °C 10.2 °C 49 % 4 km/h (8 km/h) 0 mm0 mm 0 cm 6 min 202.5 W/m²
10:36 21.7 °C 10.5 °C 49 % 4 km/h (8 km/h) 0 mm0 mm 0 cm 6 min 196.6 W/m²
10:30 21.8 °C 9.3 °C 45 % 4 km/h (8 km/h) 0 mm0 mm 0 cm 6 min 190.7 W/m²
10:24 21.7 °C 9.6 °C 46 % 3 km/h (6 km/h) 0 mm0 mm 0 cm 6 min 184.7 W/m²
10:18 21 °C 10.2 °C 50 % 2 km/h (4 km/h) 0 mm0 mm 0 cm 6 min 178.5 W/m²
10:12 20.4 °C 9.9 °C 51 % 3 km/h (8 km/h) 0 mm0 mm 0 cm 6 min 172.2 W/m²
10:06 20.1 °C 9 °C 49 % 4 km/h (8 km/h) 0 mm0 mm 0 cm 6 min 166 W/m²
10:00 20 °C 9 °C 49 % 5 km/h (7 km/h) 0 mm0 mm 0 cm 6 min 159.5 W/m²
09:54 19.7 °C 8.1 °C 47 % 5 km/h (7 km/h) 0 mm0 mm 0 cm 6 min 153 W/m²
09:48 20.1 °C 9 °C 49 % 3 km/h (6 km/h) 0 mm0 mm 0 cm 6 min 146.2 W/m²
09:42 19.9 °C 8.6 °C 48 % 3 km/h (6 km/h) 0 mm0 mm 0 cm 6 min 139.4 W/m²
09:36 19.7 °C 9.3 °C 51 % 5 km/h (7 km/h) 0 mm0 mm 0 cm 6 min 132.4 W/m²
09:30 19.6 °C 8.6 °C 49 % 4 km/h (7 km/h) 0 mm0 mm 0 cm 6 min 125.5 W/m²
09:24 19.7 °C 8.4 °C 48 % 3 km/h (5 km/h) 0 mm0 mm 0 cm 6 min 118.5 W/m²
09:18 19.6 °C 8.6 °C 49 % 4 km/h (6 km/h) 0 mm0 mm 0 cm 6 min 111.7 W/m²
09:12 19.5 °C 8.2 °C 48 % 4 km/h (6 km/h) 0 mm0 mm 0 cm 6 min 104.9 W/m²
09:06 19.7 °C 8.1 °C 47 % 3 km/h (5 km/h) 0 mm0 mm 0 cm 6 min 98 W/m²
09:00 20.3 °C 8.6 °C 47 % 2 km/h (4 km/h) 0 mm0 mm 0 cm 6 min 91.1 W/m²
08:54 20.4 °C 8.7 °C 47 % 0 km/h (4 km/h) 0 mm0 mm 0 cm 6 min 84.7 W/m²
08:48 19.8 °C 9.1 °C 50 % 4 km/h (8 km/h) 0 mm0 mm 0 cm 6 min 77.8 W/m²
08:42 18.9 °C 7.9 °C 49 % 6 km/h (8 km/h) 0 mm0 mm 0 cm 6 min 71.3 W/m²
08:36 18.4 °C 7.8 °C 50 % 5 km/h (8 km/h) 0 mm0 mm 0 cm 6 min 65.1 W/m²
08:30 18.4 °C 7.8 °C 50 % 4 km/h (7 km/h) 0 mm0 mm 0 cm 6 min 55 W/m²
08:24 18.6 °C 8.3 °C 51 % 3 km/h (5 km/h) 0 mm0 mm 0 cm 6 min 52.7 W/m²
08:18 18.3 °C 7.7 °C 50 % 3 km/h (4 km/h) 0 mm0 mm 0 cm 2 min 21.6 W/m²
08:12 18.2 °C 7.3 °C 49 % 3 km/h (7 km/h) 0 mm0 mm 0 cm 0 min 7.4 W/m²
08:06 18.2 °C 7.3 °C 49 % 4 km/h (7 km/h) 0 mm0 mm 0 cm 0 min 6.8 W/m²
08:00 18.2 °C 7.6 °C 50 % 4 km/h (6 km/h) 0 mm0 mm 0 cm 0 min 6 W/m²
07:54 18.1 °C 7.5 °C 50 % 3 km/h (6 km/h) 0 mm0 mm 0 cm 0 min 5.2 W/m²
07:48 18 °C 7.1 °C 49 % 3 km/h (7 km/h) 0 mm0 mm 0 cm 0 min 4.6 W/m²
07:42 17.7 °C 6.5 °C 48 % 3 km/h (9 km/h) 0 mm0 mm 0 cm 0 min 3 W/m²
07:36 17.9 °C 6.4 °C 47 % 5 km/h (9 km/h) 0 mm0 mm 0 cm 0 min 0 W/m²
07:30 18.3 °C 6.2 °C 45 % 5 km/h (9 km/h) 0 mm0 mm 0 cm 0 min 0 W/m²
07:24 18.6 °C 6.4 °C 45 % 6 km/h (9 km/h) 0 mm0 mm 0 cm 0 min 0 W/m²
07:18 18.4 °C 6.2 °C 45 % 6 km/h (9 km/h) 0 mm0 mm 0 cm 0 min 0 W/m²
07:12 18.6 °C 5.8 °C 43 % 5 km/h (9 km/h) 0 mm0 mm 0 cm 0 min 0 W/m²
07:06 18.8 °C 5.3 °C 41 % 6 km/h (10 km/h) 0 mm0 mm 0 cm 0 min 0 W/m²
07:00 19.1 °C 5.2 °C 40 % 7 km/h (10 km/h) 0 mm0 mm 0 cm 0 min 0 W/m²
06:54 19 °C 5.1 °C 40 % 8 km/h (10 km/h) 0 mm0 mm 0 cm 0 min 0 W/m²
06:48 18.9 °C 5.3 °C 41 % 7 km/h (10 km/h) 0 mm0 mm 0 cm 0 min 0 W/m²
06:42 18.8 °C 5.6 °C 42 % 7 km/h (10 km/h) 0 mm0 mm 0 cm 0 min 0 W/m²
06:36 18.4 °C 6.2 °C 45 % 8 km/h (10 km/h) 0 mm0 mm 0 cm 0 min 0 W/m²
06:30 18.4 °C 6.6 °C 46 % 8 km/h (10 km/h) 0 mm0 mm 0 cm 0 min 0 W/m²
06:24 18.1 °C 6.3 °C 46 % 8 km/h (10 km/h) 0 mm0 mm 0 cm 0 min 0 W/m²
06:18 18.3 °C 6.5 °C 46 % 7 km/h (10 km/h) 0 mm0 mm 0 cm 0 min 0 W/m²
06:12 18.2 °C 6.7 °C 47 % 7 km/h (10 km/h) 0 mm0 mm 0 cm 0 min 0 W/m²
06:06 18.1 °C 6.9 °C 48 % 7 km/h (10 km/h) 0 mm0 mm 0 cm 0 min 0 W/m²
06:00 17.9 °C 7 °C 49 % 7 km/h (10 km/h) 0 mm0 mm 0 cm 0 min 0 W/m²
05:54 18.4 °C 7.2 °C 48 % 6 km/h (9 km/h) 0 mm0 mm 0 cm 0 min 0 W/m²
05:48 18.6 °C 7.7 °C 49 % 5 km/h (8 km/h) 0 mm0 mm 0 cm 0 min 0 W/m²
05:42 18.5 °C 7.3 °C 48 % 4 km/h (8 km/h) 0 mm0 mm 0 cm 0 min 0 W/m²
05:36 18.4 °C 7.2 °C 48 % 5 km/h (9 km/h) 0 mm0 mm 0 cm 0 min 0 W/m²
05:30 18.2 °C 6.4 °C 46 % 6 km/h (9 km/h) 0 mm0 mm 0 cm 0 min 0 W/m²
05:24 18.2 °C 6.4 °C 46 % 6 km/h (9 km/h) 0 mm0 mm 0 cm 0 min 0 W/m²
05:18 18.5 °C 6.7 °C 46 % 6 km/h (9 km/h) 0 mm0 mm 0 cm 0 min 0 W/m²
05:12 19 °C 7.1 °C 46 % 5 km/h (9 km/h) 0 mm0 mm 0 cm 0 min 0 W/m²
05:06 18.7 °C 7.2 °C 47 % 5 km/h (8 km/h) 0 mm0 mm 0 cm 0 min 0 W/m²
05:00 18.6 °C 7.1 °C 47 % 5 km/h (8 km/h) 0 mm0 mm 0 cm 0 min 0 W/m²
04:54 18.4 °C 6.9 °C 47 % 6 km/h (9 km/h) 0 mm0 mm 0 cm 0 min 0 W/m²
04:48 18.4 °C 6.9 °C 47 % 7 km/h (9 km/h) 0 mm0 mm 0 cm 0 min 0 W/m²
04:42 18.4 °C 7.2 °C 48 % 6 km/h (9 km/h) 0 mm0 mm 0 cm 0 min 0 W/m²
04:36 18 °C 7.4 °C 50 % 6 km/h (9 km/h) 0 mm0 mm 0 cm 0 min 0 W/m²
04:30 17.8 °C 7.5 °C 51 % 7 km/h (10 km/h) 0 mm0 mm 0 cm 0 min 0 W/m²
04:24 17.9 °C 7.3 °C 50 % 7 km/h (10 km/h) 0 mm0 mm 0 cm 0 min 0 W/m²
04:18 18 °C 7.4 °C 50 % 6 km/h (9 km/h) 0 mm0 mm 0 cm 0 min 0 W/m²
04:12 18.2 °C 7.6 °C 50 % 6 km/h (9 km/h) 0 mm0 mm 0 cm 0 min 0 W/m²
04:06 18.2 °C 7.3 °C 49 % 6 km/h (9 km/h) 0 mm0 mm 0 cm 0 min 0 W/m²
04:00 18.1 °C 7.2 °C 49 % 5 km/h (9 km/h) 0 mm0 mm 0 cm 0 min 0 W/m²
03:54 18.2 °C 7.3 °C 49 % 5 km/h (9 km/h) 0 mm0 mm 0 cm 0 min 0 W/m²
03:48 18.3 °C 7.4 °C 49 % 5 km/h (9 km/h) 0 mm0 mm 0 cm 0 min 0 W/m²
03:42 18.5 °C 7.6 °C 49 % 5 km/h (8 km/h) 0 mm0 mm 0 cm 0 min 0 W/m²
03:36 18.5 °C 7.3 °C 48 % 5 km/h (8 km/h) 0 mm0 mm 0 cm 0 min 0 W/m²
03:30 18.4 °C 7.2 °C 48 % 5 km/h (7 km/h) 0 mm0 mm 0 cm 0 min 0 W/m²
03:24 18.6 °C 7.4 °C 48 % 5 km/h (8 km/h) 0 mm0 mm 0 cm 0 min 0 W/m²
03:18 18.7 °C 7.2 °C 47 % 5 km/h (8 km/h) 0 mm0 mm 0 cm 0 min 0 W/m²
03:12 18.6 °C 7.1 °C 47 % 4 km/h (7 km/h) 0 mm0 mm 0 cm 0 min 0 W/m²
03:06 18.6 °C 6.7 °C 46 % 5 km/h (8 km/h) 0 mm0 mm 0 cm 0 min 0 W/m²
03:00 18.8 °C 6.9 °C 46 % 4 km/h (8 km/h) 0 mm0 mm 0 cm 0 min 0 W/m²
02:54 18.9 °C 7 °C 46 % 4 km/h (7 km/h) 0 mm0 mm 0 cm 0 min 0 W/m²
02:48 18.7 °C 6.8 °C 46 % 4 km/h (6 km/h) 0 mm0 mm 0 cm 0 min 0 W/m²
02:42 18.6 °C 6.7 °C 46 % 4 km/h (6 km/h) 0 mm0 mm 0 cm 0 min 0 W/m²
02:36 17.9 °C 6.4 °C 47 % 5 km/h (6 km/h) 0 mm0 mm 0 cm 0 min 0 W/m²
02:30 17.7 °C 5.9 °C 46 % 5 km/h (8 km/h) 0 mm0 mm 0 cm 0 min 0 W/m²
02:24 18.5 °C 6.7 °C 46 % 5 km/h (8 km/h) 0 mm0 mm 0 cm 0 min 0 W/m²
02:18 18.6 °C 7.1 °C 47 % 4 km/h (7 km/h) 0 mm0 mm 0 cm 0 min 0 W/m²
02:12 18.8 °C 7.6 °C 48 % 3 km/h (7 km/h) 0 mm0 mm 0 cm 0 min 0 W/m²
02:06 18.5 °C 7.3 °C 48 % 4 km/h (7 km/h) 0 mm0 mm 0 cm 0 min 0 W/m²
02:00 18.6 °C 7.7 °C 49 % 5 km/h (9 km/h) 0 mm0 mm 0 cm 0 min 0 W/m²
01:54 18.3 °C 7.4 °C 49 % 5 km/h (9 km/h) 0 mm0 mm 0 cm 0 min 0 W/m²
01:48 18.5 °C 7.9 °C 50 % 7 km/h (12 km/h) 0 mm0 mm 0 cm 0 min 0 W/m²
01:42 18 °C 7.4 °C 50 % 8 km/h (12 km/h) 0 mm0 mm 0 cm 0 min 0 W/m²
01:36 17.9 °C 7.3 °C 50 % 8 km/h (11 km/h) 0 mm0 mm 0 cm 0 min 0 W/m²
01:30 17.8 °C 7.2 °C 50 % 7 km/h (11 km/h) 0 mm0 mm 0 cm 0 min 0 W/m²
01:24 17.7 °C 7.1 °C 50 % 7 km/h (10 km/h) 0 mm0 mm 0 cm 0 min 0 W/m²
01:18 17.5 °C 7 °C 50 % 7 km/h (10 km/h) 0 mm0 mm 0 cm 0 min 0 W/m²
01:12 17.9 °C 7 °C 49 % 6 km/h (10 km/h) 0 mm0 mm 0 cm 0 min 0 W/m²
01:06 17.8 °C 7.2 °C 50 % 4 km/h (7 km/h) 0 mm0 mm 0 cm 0 min 0 W/m²
01:00 17.7 °C 7.4 °C 51 % 4 km/h (6 km/h) 0 mm0 mm 0 cm 0 min 0 W/m²
00:54 17.9 °C 7.6 °C 51 % 4 km/h (10 km/h) 0 mm0 mm 0 cm 0 min 0 W/m²
00:48 17.2 °C 7 °C 51 % 6 km/h (10 km/h) 0 mm0 mm 0 cm 0 min 0 W/m²
00:42 17.5 °C 7.2 °C 51 % 6 km/h (10 km/h) 0 mm0 mm 0 cm 0 min 0 W/m²
00:36 17.8 °C 7.5 °C 51 % 5 km/h (8 km/h) 0 mm0 mm 0 cm 0 min 0 W/m²
00:30 17.8 °C 7.5 °C 51 % 3 km/h (6 km/h) 0 mm0 mm 0 cm 0 min 0 W/m²
00:24 17.5 °C 7.2 °C 51 % 4 km/h (10 km/h) 0 mm0 mm 0 cm 0 min 0 W/m²
00:18 17.2 °C 7.3 °C 52 % 7 km/h (11 km/h) 0 mm0 mm 0 cm 0 min 0 W/m²
00:12 17.7 °C 7.7 °C 52 % 6 km/h (9 km/h) 0 mm0 mm 0 cm 0 min 0 W/m²
00:06 17.6 °C 8.2 °C 54 % 5 km/h (9 km/h) 0 mm0 mm 0 cm 0 min 0 W/m²
00:00 17.6 °C 8.4 °C 55 % 5 km/h (8 km/h) 0 mm0 mm 0 cm 0 min 0 W/m²

Données via Météo-France

Relevés météo à Chastreix

Cette page rassemble les observations de la station de Chastreix : température, humidité, vent, précipitations et pression atmosphérique. Les graphiques facilitent le suivi de la journée, tandis que le tableau donne accès aux mesures horaires et infra-horaires disponibles.

Pour replacer ces mesures dans leur contexte, consultez la climatologie de Chastreix ainsi que ses normales et records. Retrouvez aussi la carte des observations météo en temps réel.